Portada
METAR-TAF:

METAR-TAF

Aeropuertos :

Longyearbyen, Noruega

Aeropuerto de Svalbard

latitud: 78-15N, longitud: 015-28E, altitud: 2 m

Observación

El informe se hizo hace 43 minutos, a las 07:50 UTC
Viento 9 kt del este-sureste
Temperatura -4°C
Humedad 68%
Presión 1020 hPa
Visibilidad 10 km o más
Escasas nubes a una altura de 3000 ft
Nubes dispersas a una altura de 8000 ft

METAR: ENSB 280750Z 12009KT 9999 FEW030 SCT080 M04/M09 Q1020 RMK WIND 1400FT 12009KT

Hora: 10:33 (08:33 UTC)

Pronóstico

Pronóstico válido del 28 a las 06 UTC al 29 a las 06 UTC
Viento 5 kt con dirección variable
Visibilidad 10 km o más
Escasas nubes a una altura de 1500 ft
Nubes dispersas a una altura de 4000 ft
Temporalmente
del 28 a las 06 UTC al 29 a las 06 UTC
Viento 10 kt del este-sureste

TAF: ENSB 2806/2906 VRB05KT 9999 FEW015 SCT040 TEMPO 2806/2906 12010KT

Observaciones y pronósticos meteorológicos de más de 4000 aeropuertos (mensajes METAR y TAF).

Los puntos amarillos y rojos representan las estaciones disponibles.

Ponga el ratón en el punto deseado para ver el nombre de la estación.

Haga clic para ver las observaciones y los pronósticos meteorológicos.

Para cambiar el mapa : haga clic en los botones verdes con una cruz de color negro para hacer un zoom, en el botón verde con un guión para alejar o en las flechas verdes para mapas adyacentes.


METAR-TAF: